Time;durP1;ratioP1;P1;durP2;ratioP2;P2;SDS_P1;SDS_P2;PMS_P1;PMS_P2;Temp;Humidity;BMP_temperature;BMP_pressure;BME280_temperature;BME280_humidity;BME280_pressure;Samples;Min_cycle;Max_cycle;Signal;HPM_P1;HPM_P2
2023/12/20 00:01:56;;;;;;;14.65;9.07;;;;;;;;;;10290542;28;20490;-66
2023/12/20 00:06:57;;;;;;;14.93;9.35;;;;;;;;;;10290483;28;20030;-66
2023/12/20 00:11:57;;;;;;;16.83;9.45;;;;;;;;;;10271933;28;20038;-63
2023/12/20 00:16:58;;;;;;;14.23;9.15;;;;;;;;;;10271495;28;20042;-66
2023/12/20 00:21:59;;;;;;;15.65;9.38;;;;;;;;;;10271677;28;20262;-64
2023/12/20 00:27:00;;;;;;;13.38;9.13;;;;;;;;;;10271974;28;20117;-66
2023/12/20 00:32:01;;;;;;;13.75;9.10;;;;;;;;;;10270777;28;20345;-59
2023/12/20 00:37:01;;;;;;;12.82;8.80;;;;;;;;;;10270966;28;20653;-65
2023/12/20 00:42:02;;;;;;;13.98;8.75;;;;;;;;;;10270495;28;20037;-64
2023/12/20 00:47:03;;;;;;;18.98;8.70;;;;;;;;;;10279872;28;20382;-62
2023/12/20 00:52:04;;;;;;;13.50;9.65;;;;;;;;;;10288743;28;20264;-63
2023/12/20 00:57:04;;;;;;;12.00;7.88;;;;;;;;;;10288425;28;20386;-64
2023/12/20 01:02:05;;;;;;;14.70;8.73;;;;;;;;;;10288264;28;20027;-61
2023/12/20 01:07:05;;;;;;;13.65;9.00;;;;;;;;;;10288054;28;20022;-62
2023/12/20 01:12:06;;;;;;;17.40;9.02;;;;;;;;;;10288040;28;20034;-64
2023/12/20 01:17:07;;;;;;;13.10;8.30;;;;;;;;;;10287522;28;20479;-65
2023/12/20 01:22:07;;;;;;;11.38;8.07;;;;;;;;;;10287452;28;20042;-64
2023/12/20 01:27:08;;;;;;;14.57;8.35;;;;;;;;;;10287004;28;20027;-65
2023/12/20 01:32:08;;;;;;;13.55;8.30;;;;;;;;;;10287744;28;20022;-63
2023/12/20 01:37:09;;;;;;;14.27;8.07;;;;;;;;;;10286513;28;20031;-63
2023/12/20 01:42:09;;;;;;;12.25;8.07;;;;;;;;;;10286714;28;20043;-65
2023/12/20 01:47:10;;;;;;;12.13;7.72;;;;;;;;;;10286573;28;20031;-62
2023/12/20 01:52:11;;;;;;;12.52;8.32;;;;;;;;;;10269668;28;20033;-64
2023/12/20 01:57:12;;;;;;;11.80;7.97;;;;;;;;;;10286733;28;20034;-61
2023/12/20 02:02:12;;;;;;;11.32;8.02;;;;;;;;;;10298191;23;20069;-62
2023/12/20 02:07:13;;;;;;;13.07;8.18;;;;;;;;;;10286589;28;20023;-62
2023/12/20 02:12:14;;;;;;;11.38;8.43;;;;;;;;;;10286315;28;20035;-62
2023/12/20 02:17:15;;;;;;;11.88;7.32;;;;;;;;;;10285700;28;20065;-62
2023/12/20 02:22:16;;;;;;;13.13;8.10;;;;;;;;;;10286162;28;20195;-61
2023/12/20 02:27:19;;;;;;;10.27;7.50;;;;;;;;;;10285985;28;20187;-62
2023/12/20 02:32:21;;;;;;;9.63;7.20;;;;;;;;;;10268851;28;20031;-60
2023/12/20 02:37:21;;;;;;;14.65;7.68;;;;;;;;;;10292029;28;20494;-61
2023/12/20 02:42:22;;;;;;;12.32;7.88;;;;;;;;;;10293406;28;20097;-60
2023/12/20 02:47:22;;;;;;;9.05;6.82;;;;;;;;;;10293347;28;20054;-60
2023/12/20 02:52:24;;;;;;;9.23;7.15;;;;;;;;;;10293029;28;20030;-61
2023/12/20 02:57:24;;;;;;;11.05;7.75;;;;;;;;;;10292880;28;20031;-60
2023/12/20 03:02:25;;;;;;;11.70;7.05;;;;;;;;;;10292535;28;20403;-60
2023/12/20 03:07:26;;;;;;;13.18;7.22;;;;;;;;;;10292593;28;20278;-61
2023/12/20 03:12:26;;;;;;;9.73;7.35;;;;;;;;;;10292585;28;20380;-60
2023/12/20 03:17:27;;;;;;;11.30;7.13;;;;;;;;;;10292059;28;20386;-60
2023/12/20 03:22:27;;;;;;;8.05;6.72;;;;;;;;;;10293138;28;20467;-60
2023/12/20 03:27:28;;;;;;;9.63;6.63;;;;;;;;;;10291496;28;20489;-60
2023/12/20 03:32:28;;;;;;;10.25;6.97;;;;;;;;;;10291886;28;20035;-60
2023/12/20 03:37:29;;;;;;;8.73;6.35;;;;;;;;;;10291398;28;20387;-60
2023/12/20 03:42:30;;;;;;;13.82;7.63;;;;;;;;;;10292369;28;20035;-60
2023/12/20 03:47:30;;;;;;;11.25;7.00;;;;;;;;;;10290503;28;20030;-60
2023/12/20 03:52:31;;;;;;;12.60;7.03;;;;;;;;;;10290915;28;20394;-61
2023/12/20 03:57:31;;;;;;;8.98;6.68;;;;;;;;;;10290697;28;20431;-60
2023/12/20 04:02:32;;;;;;;9.13;6.65;;;;;;;;;;10290474;28;20382;-60
2023/12/20 04:07:32;;;;;;;7.25;5.93;;;;;;;;;;10290779;28;20031;-60
2023/12/20 04:12:33;;;;;;;9.27;6.60;;;;;;;;;;10290245;28;20023;-61
2023/12/20 04:17:34;;;;;;;9.18;6.95;;;;;;;;;;10290353;28;20034;-61
2023/12/20 04:22:34;;;;;;;8.48;6.43;;;;;;;;;;10290011;28;20031;-60
2023/12/20 04:27:35;;;;;;;7.43;5.97;;;;;;;;;;10289688;28;20031;-60
2023/12/20 04:32:36;;;;;;;9.70;6.65;;;;;;;;;;10290357;28;20019;-60
2023/12/20 04:37:36;;;;;;;9.18;6.28;;;;;;;;;;10289729;28;20033;-61
2023/12/20 04:42:37;;;;;;;9.30;6.45;;;;;;;;;;10289053;28;20026;-61
2023/12/20 04:47:37;;;;;;;8.85;6.38;;;;;;;;;;10288844;28;20023;-61
2023/12/20 04:52:38;;;;;;;7.32;5.65;;;;;;;;;;10289156;28;20043;-61
2023/12/20 04:57:39;;;;;;;8.35;6.15;;;;;;;;;;10287445;28;20379;-60
2023/12/20 05:02:39;;;;;;;7.57;5.70;;;;;;;;;;10289034;28;20388;-61
2023/12/20 05:07:40;;;;;;;9.48;6.32;;;;;;;;;;10270889;28;20038;-61
2023/12/20 05:12:41;;;;;;;7.78;5.70;;;;;;;;;;10287953;28;20360;-60
2023/12/20 05:17:41;;;;;;;10.13;6.38;;;;;;;;;;10288107;28;20026;-60
2023/12/20 05:22:42;;;;;;;8.07;5.85;;;;;;;;;;10288511;28;20379;-60
2023/12/20 05:27:42;;;;;;;11.63;6.05;;;;;;;;;;10287372;28;20042;-61
2023/12/20 05:32:43;;;;;;;9.88;5.85;;;;;;;;;;10287321;28;20054;-61
2023/12/20 05:37:43;;;;;;;7.53;5.22;;;;;;;;;;10287149;28;20031;-59
2023/12/20 05:42:44;;;;;;;6.82;5.47;;;;;;;;;;10287134;28;20035;-60
2023/12/20 05:47:45;;;;;;;7.75;5.43;;;;;;;;;;10286428;28;20380;-61
2023/12/20 05:52:45;;;;;;;8.15;5.80;;;;;;;;;;10287388;28;20031;-60
2023/12/20 05:57:46;;;;;;;8.10;5.97;;;;;;;;;;10286511;28;20042;-61
2023/12/20 06:02:47;;;;;;;8.88;5.57;;;;;;;;;;10286394;28;20054;-60
2023/12/20 06:07:49;;;;;;;7.03;5.22;;;;;;;;;;10287330;28;20055;-61
2023/12/20 06:12:51;;;;;;;7.43;5.28;;;;;;;;;;10293809;28;20434;-61
2023/12/20 06:17:51;;;;;;;6.70;5.25;;;;;;;;;;10294935;28;20026;-61
2023/12/20 06:22:52;;;;;;;11.52;5.10;;;;;;;;;;10294205;28;20030;-61
2023/12/20 06:27:52;;;;;;;7.45;5.00;;;;;;;;;;10294450;28;20026;-61
2023/12/20 06:32:57;;;;;;;6.43;4.75;;;;;;;;;;10294264;28;20035;-61
2023/12/20 06:37:58;;;;;;;7.65;5.25;;;;;;;;;;10294038;28;20178;-61
2023/12/20 06:42:59;;;;;;;6.75;4.97;;;;;;;;;;10294019;28;20030;-61
2023/12/20 06:48:00;;;;;;;14.35;6.75;;;;;;;;;;10294292;28;20027;-61
2023/12/20 06:53:06;;;;;;;13.07;7.53;;;;;;;;;;10293177;28;20035;-59
2023/12/20 06:58:07;;;;;;;13.60;8.02;;;;;;;;;;10292548;28;20081;-59
2023/12/20 07:03:09;;;;;;;11.95;7.30;;;;;;;;;;10293268;28;20034;-59
2023/12/20 07:08:10;;;;;;;13.02;8.07;;;;;;;;;;10275322;28;20031;-60
2023/12/20 07:13:12;;;;;;;12.82;8.05;;;;;;;;;;10292590;28;20031;-61
2023/12/20 07:18:12;;;;;;;12.13;7.57;;;;;;;;;;10292316;28;20026;-61
2023/12/20 07:23:13;;;;;;;12.32;7.90;;;;;;;;;;10291162;28;20026;-60
2023/12/20 07:28:13;;;;;;;12.48;7.88;;;;;;;;;;10291887;28;20023;-60
2023/12/20 07:33:14;;;;;;;18.25;9.48;;;;;;;;;;10291830;28;20106;-60
2023/12/20 07:38:15;;;;;;;12.23;7.57;;;;;;;;;;10291980;28;20071;-60
2023/12/20 07:43:15;;;;;;;14.48;8.38;;;;;;;;;;10292079;28;20027;-60
2023/12/20 07:48:16;;;;;;;15.82;8.65;;;;;;;;;;10291155;28;20103;-60
2023/12/20 07:53:16;;;;;;;15.27;7.63;;;;;;;;;;10291273;28;20031;-61
2023/12/20 07:58:17;;;;;;;16.17;7.75;;;;;;;;;;10290943;28;20054;-60
2023/12/20 08:03:18;;;;;;;17.20;7.13;;;;;;;;;;10290538;28;20030;-61
2023/12/20 08:08:18;;;;;;;9.95;7.22;;;;;;;;;;10290441;28;20085;-61
2023/12/20 08:13:19;;;;;;;14.32;7.55;;;;;;;;;;10290213;28;20034;-60
2023/12/20 08:18:19;;;;;;;13.63;8.07;;;;;;;;;;10290864;28;20073;-61
2023/12/20 08:23:21;;;;;;;12.45;7.50;;;;;;;;;;10289948;28;20030;-61
2023/12/20 08:28:21;;;;;;;12.48;7.38;;;;;;;;;;10289969;28;20030;-60
2023/12/20 08:33:22;;;;;;;10.27;7.50;;;;;;;;;;10289298;28;20371;-61
2023/12/20 08:38:22;;;;;;;10.73;7.03;;;;;;;;;;10288994;28;20027;-61
2023/12/20 08:43:23;;;;;;;13.23;7.90;;;;;;;;;;10288956;28;20085;-60
2023/12/20 08:48:23;;;;;;;12.82;8.40;;;;;;;;;;10278726;28;20019;-61
2023/12/20 08:53:25;;;;;;;12.45;7.40;;;;;;;;;;10270262;28;20022;-60
2023/12/20 08:58:25;;;;;;;13.90;7.70;;;;;;;;;;10270039;28;20051;-61
2023/12/20 09:03:26;;;;;;;9.43;7.20;;;;;;;;;;10269654;28;20031;-61
2023/12/20 09:08:26;;;;;;;10.05;7.40;;;;;;;;;;10269626;28;20027;-62
2023/12/20 09:13:28;;;;;;;10.98;7.53;;;;;;;;;;10269462;28;20026;-61
2023/12/20 09:18:29;;;;;;;11.18;7.47;;;;;;;;;;10269540;28;20034;-61
2023/12/20 09:23:29;;;;;;;12.80;7.82;;;;;;;;;;10251781;28;20033;-61
2023/12/20 09:28:32;;;;;;;12.40;7.47;;;;;;;;;;10268665;28;20035;-61
2023/12/20 09:33:33;;;;;;;10.40;7.35;;;;;;;;;;10268755;28;20114;-60
2023/12/20 09:38:34;;;;;;;13.00;7.78;;;;;;;;;;10268525;28;20041;-61
2023/12/20 09:43:38;;;;;;;11.00;6.88;;;;;;;;;;10267762;28;20030;-61
2023/12/20 09:48:40;;;;;;;9.93;7.65;;;;;;;;;;10251187;28;20048;-61
2023/12/20 09:53:43;;;;;;;10.05;7.40;;;;;;;;;;10269041;28;20031;-61
2023/12/20 09:58:43;;;;;;;13.70;7.18;;;;;;;;;;10268282;28;20054;-61
2023/12/20 10:03:44;;;;;;;14.85;7.00;;;;;;;;;;10268115;28;20030;-61
2023/12/20 10:08:44;;;;;;;12.77;7.22;;;;;;;;;;10268243;28;20504;-61
2023/12/20 10:13:48;;;;;;;10.88;7.25;;;;;;;;;;10285126;28;20054;-62
2023/12/20 10:18:48;;;;;;;10.98;7.60;;;;;;;;;;10268483;28;20145;-61
2023/12/20 10:23:50;;;;;;;13.75;7.07;;;;;;;;;;10284457;28;20054;-60
2023/12/20 10:28:55;;;;;;;12.18;7.20;;;;;;;;;;10260548;28;20041;-61
2023/12/20 10:34:01;;;;;;;14.48;7.93;;;;;;;;;;10286030;28;20491;-61
2023/12/20 10:39:02;;;;;;;9.23;7.10;;;;;;;;;;10277307;28;20387;-61
2023/12/20 10:44:07;;;;;;;9.43;7.68;;;;;;;;;;10284456;28;20026;-61
2023/12/20 10:49:09;;;;;;;11.60;7.80;;;;;;;;;;10285701;28;20035;-61
2023/12/20 10:54:11;;;;;;;11.77;7.55;;;;;;;;;;10285630;28;20457;-60
2023/12/20 10:59:16;;;;;;;11.32;7.60;;;;;;;;;;10291782;28;20046;-61
2023/12/20 11:04:26;;;;;;;11.90;7.60;;;;;;;;;;10287486;28;20554;-61
2023/12/20 11:09:41;;;;;;;11.70;8.15;;;;;;;;;;10274979;28;20027;-60
2023/12/20 11:14:50;;;;;;;10.10;7.70;;;;;;;;;;10288384;28;20034;-61
2023/12/20 11:19:57;;;;;;;11.73;7.88;;;;;;;;;;10271072;28;20027;-61
2023/12/20 11:25:10;;;;;;;11.00;7.75;;;;;;;;;;10291832;28;20081;-61
2023/12/20 11:30:11;;;;;;;12.77;8.15;;;;;;;;;;10292210;28;20121;-61
2023/12/20 11:35:12;;;;;;;16.92;8.02;;;;;;;;;;10291382;28;20035;-61
2023/12/20 11:40:16;;;;;;;9.68;7.80;;;;;;;;;;10284304;28;20059;-61
2023/12/20 11:45:24;;;;;;;9.65;7.25;;;;;;;;;;10291733;28;20437;-61
2023/12/20 11:50:25;;;;;;;13.50;8.57;;;;;;;;;;10263193;28;20035;-61
2023/12/20 11:55:25;;;;;;;16.15;8.18;;;;;;;;;;10272983;28;20070;-61
2023/12/20 12:00:26;;;;;;;10.73;7.68;;;;;;;;;;10272029;28;20098;-61
2023/12/20 12:05:26;;;;;;;8.63;7.50;;;;;;;;;;10258862;28;20035;-61
2023/12/20 12:10:28;;;;;;;11.07;7.97;;;;;;;;;;10285465;28;20034;-61
2023/12/20 12:15:29;;;;;;;10.50;7.30;;;;;;;;;;10288974;28;20065;-62
2023/12/20 12:20:30;;;;;;;11.57;7.88;;;;;;;;;;10268983;28;20097;-61
2023/12/20 12:25:34;;;;;;;14.55;8.00;;;;;;;;;;10288742;28;20033;-60
2023/12/20 12:30:35;;;;;;;13.07;7.72;;;;;;;;;;10277084;28;20418;-60
2023/12/20 12:35:36;;;;;;;11.27;7.43;;;;;;;;;;10270638;28;20070;-59
2023/12/20 12:40:36;;;;;;;10.50;7.80;;;;;;;;;;10270564;28;20026;-60
2023/12/20 12:45:37;;;;;;;10.35;7.93;;;;;;;;;;10286729;28;20031;-61
2023/12/20 12:50:37;;;;;;;12.15;8.15;;;;;;;;;;10287848;28;20030;-60
2023/12/20 12:55:38;;;;;;;10.45;7.50;;;;;;;;;;10279476;28;20031;-59
2023/12/20 13:00:38;;;;;;;16.27;7.65;;;;;;;;;;10286166;28;20043;-60
2023/12/20 13:05:39;;;;;;;11.13;7.75;;;;;;;;;;10282750;28;20098;-60
2023/12/20 13:10:40;;;;;;;15.07;8.10;;;;;;;;;;10280230;28;20376;-58
2023/12/20 13:15:40;;;;;;;16.67;8.02;;;;;;;;;;10288022;28;20049;-59
2023/12/20 13:20:41;;;;;;;11.90;7.93;;;;;;;;;;10286345;28;20442;-60
2023/12/20 13:25:41;;;;;;;10.13;7.65;;;;;;;;;;10287251;28;20034;-60
2023/12/20 13:30:42;;;;;;;11.98;7.70;;;;;;;;;;10284508;28;20173;-60
2023/12/20 13:35:43;;;;;;;15.07;7.90;;;;;;;;;;10283935;28;20031;-61
2023/12/20 13:40:44;;;;;;;9.63;6.90;;;;;;;;;;10284602;28;20034;-60
2023/12/20 13:45:44;;;;;;;10.85;6.90;;;;;;;;;;10273910;28;20030;-61
2023/12/20 13:50:45;;;;;;;9.57;6.95;;;;;;;;;;10283428;28;20062;-61
2023/12/20 13:55:46;;;;;;;11.85;6.60;;;;;;;;;;10277266;28;20030;-61
2023/12/20 14:00:46;;;;;;;11.50;7.10;;;;;;;;;;10248926;28;20045;-61
2023/12/20 14:05:47;;;;;;;9.73;5.97;;;;;;;;;;10267205;28;20675;-60
2023/12/20 14:10:48;;;;;;;11.65;7.63;;;;;;;;;;10266369;28;20023;-61
2023/12/20 14:15:49;;;;;;;13.15;6.93;;;;;;;;;;10265958;28;20030;-61
2023/12/20 14:20:50;;;;;;;10.20;6.45;;;;;;;;;;10281370;28;20027;-61
2023/12/20 14:25:51;;;;;;;16.73;7.32;;;;;;;;;;10284521;28;20318;-61
2023/12/20 14:30:51;;;;;;;10.95;6.57;;;;;;;;;;10287827;28;20287;-61
2023/12/20 14:35:52;;;;;;;8.80;6.97;;;;;;;;;;10293271;28;20133;-61
2023/12/20 14:40:53;;;;;;;9.25;7.03;;;;;;;;;;10291755;28;20035;-61
2023/12/20 14:45:54;;;;;;;10.93;6.53;;;;;;;;;;10293094;28;20031;-61
2023/12/20 14:50:54;;;;;;;12.35;7.05;;;;;;;;;;10292640;28;20031;-60
2023/12/20 14:55:55;;;;;;;8.95;6.82;;;;;;;;;;10291789;28;20030;-61
2023/12/20 15:00:56;;;;;;;13.77;6.35;;;;;;;;;;10292582;28;20042;-61
2023/12/20 15:05:58;;;;;;;10.48;6.75;;;;;;;;;;10292638;28;20042;-60
2023/12/20 15:10:59;;;;;;;12.05;6.95;;;;;;;;;;10285993;28;20031;-60
2023/12/20 15:16:00;;;;;;;7.88;6.57;;;;;;;;;;10291824;28;20050;-61
2023/12/20 15:21:00;;;;;;;11.48;7.18;;;;;;;;;;10286708;28;20038;-61
2023/12/20 15:26:01;;;;;;;9.52;6.82;;;;;;;;;;10291710;28;20042;-60
2023/12/20 15:31:01;;;;;;;10.63;6.53;;;;;;;;;;10285555;28;20031;-61
2023/12/20 15:36:02;;;;;;;8.95;6.47;;;;;;;;;;10291983;28;20034;-59
2023/12/20 15:41:03;;;;;;;9.35;6.50;;;;;;;;;;10283056;28;20128;-61
2023/12/20 15:46:04;;;;;;;11.95;6.93;;;;;;;;;;10288164;28;20370;-59
2023/12/20 15:51:06;;;;;;;10.05;6.70;;;;;;;;;;10290690;28;20471;-60
2023/12/20 15:56:07;;;;;;;9.75;7.00;;;;;;;;;;10290815;28;20363;-61
2023/12/20 16:01:08;;;;;;;8.35;6.28;;;;;;;;;;10284923;28;20047;-60
2023/12/20 16:06:10;;;;;;;9.52;6.53;;;;;;;;;;10272255;28;20042;-61
2023/12/20 16:11:11;;;;;;;10.30;7.15;;;;;;;;;;10270836;28;20579;-61
2023/12/20 16:16:12;;;;;;;9.82;7.30;;;;;;;;;;10269579;28;20108;-60
2023/12/20 16:21:12;;;;;;;11.57;8.05;;;;;;;;;;10270247;28;20035;-60
2023/12/20 16:26:13;;;;;;;19.67;9.45;;;;;;;;;;10270229;28;20030;-60
2023/12/20 16:31:14;;;;;;;14.88;9.18;;;;;;;;;;10269928;28;20037;-60
2023/12/20 16:36:14;;;;;;;14.48;10.30;;;;;;;;;;10269620;28;20069;-61
2023/12/20 16:41:15;;;;;;;20.20;11.30;;;;;;;;;;10269613;28;20027;-60
2023/12/20 16:46:16;;;;;;;20.05;11.07;;;;;;;;;;10269180;28;20058;-61
2023/12/20 16:51:16;;;;;;;16.58;10.48;;;;;;;;;;10283811;28;20015;-60
2023/12/20 16:56:17;;;;;;;16.48;9.95;;;;;;;;;;10289468;28;20031;-61
2023/12/20 17:01:18;;;;;;;17.17;10.50;;;;;;;;;;10282116;28;20117;-60
2023/12/20 17:06:18;;;;;;;16.50;9.85;;;;;;;;;;10282709;28;20027;-60
2023/12/20 17:11:21;;;;;;;16.95;10.18;;;;;;;;;;10286766;28;20093;-61
2023/12/20 17:16:21;;;;;;;13.77;9.95;;;;;;;;;;10283536;28;20567;-59
2023/12/20 17:21:22;;;;;;;16.05;10.20;;;;;;;;;;10277466;28;20027;-60
2023/12/20 17:26:23;;;;;;;15.43;10.43;;;;;;;;;;10267411;28;20038;-60
2023/12/20 17:31:23;;;;;;;14.48;9.77;;;;;;;;;;10285680;28;20026;-61
2023/12/20 17:36:24;;;;;;;16.83;10.38;;;;;;;;;;10286327;28;20031;-62
2023/12/20 17:41:24;;;;;;;16.52;10.25;;;;;;;;;;10285550;28;20019;-62
2023/12/20 17:46:25;;;;;;;13.85;9.95;;;;;;;;;;10285165;28;20030;-61
2023/12/20 17:51:26;;;;;;;19.17;10.73;;;;;;;;;;10285227;28;20470;-61
2023/12/20 17:56:29;;;;;;;18.42;9.65;;;;;;;;;;10285817;28;20117;-61
2023/12/20 18:01:30;;;;;;;15.02;9.75;;;;;;;;;;10270884;28;20097;-62
2023/12/20 18:06:30;;;;;;;15.40;9.57;;;;;;;;;;10284388;28;20051;-61
2023/12/20 18:11:31;;;;;;;17.30;10.35;;;;;;;;;;10281069;28;20682;-61
2023/12/20 18:16:31;;;;;;;13.32;8.70;;;;;;;;;;10281175;28;20483;-62
2023/12/20 18:21:32;;;;;;;16.13;9.40;;;;;;;;;;10278279;28;20406;-61
2023/12/20 18:26:35;;;;;;;14.38;9.43;;;;;;;;;;10276134;28;20344;-62
2023/12/20 18:31:36;;;;;;;14.80;9.55;;;;;;;;;;10273454;28;20139;-60
2023/12/20 18:36:37;;;;;;;19.75;10.50;;;;;;;;;;10266725;28;20586;-61
2023/12/20 18:41:39;;;;;;;13.93;8.98;;;;;;;;;;10269867;28;20038;-59
2023/12/20 18:46:41;;;;;;;16.20;9.25;;;;;;;;;;10285105;28;20133;-60
2023/12/20 18:51:41;;;;;;;18.27;10.25;;;;;;;;;;10283927;28;20137;-60
2023/12/20 18:56:42;;;;;;;16.92;9.85;;;;;;;;;;10284941;28;20035;-59
2023/12/20 19:01:43;;;;;;;16.00;10.30;;;;;;;;;;10273754;28;20054;-59
2023/12/20 19:06:44;;;;;;;16.17;9.93;;;;;;;;;;10280472;28;20142;-59
2023/12/20 19:11:44;;;;;;;16.00;9.82;;;;;;;;;;10278317;28;20035;-59
2023/12/20 19:16:45;;;;;;;15.90;9.80;;;;;;;;;;10284572;28;20061;-60
2023/12/20 19:21:46;;;;;;;18.60;10.55;;;;;;;;;;10292243;28;20026;-60
2023/12/20 19:26:46;;;;;;;18.35;11.00;;;;;;;;;;10290762;28;20019;-60
2023/12/20 19:31:47;;;;;;;14.32;9.93;;;;;;;;;;10286783;28;20114;-59
2023/12/20 19:36:48;;;;;;;21.10;10.15;;;;;;;;;;10272309;28;20386;-59
2023/12/20 19:41:48;;;;;;;17.10;10.18;;;;;;;;;;10274813;28;20028;-60
2023/12/20 19:46:49;;;;;;;19.70;10.45;;;;;;;;;;10267968;28;20030;-60
2023/12/20 19:51:50;;;;;;;15.15;9.70;;;;;;;;;;10267852;28;20030;-60
2023/12/20 19:56:50;;;;;;;16.00;10.05;;;;;;;;;;10269557;28;20058;-60
2023/12/20 20:01:51;;;;;;;16.95;9.43;;;;;;;;;;10270678;28;20137;-60
2023/12/20 20:06:52;;;;;;;16.63;9.23;;;;;;;;;;10272673;28;20069;-60
2023/12/20 20:11:52;;;;;;;14.85;9.65;;;;;;;;;;10269800;28;20497;-60
2023/12/20 20:16:53;;;;;;;16.35;8.23;;;;;;;;;;10271808;28;20027;-60
2023/12/20 20:21:55;;;;;;;25.20;9.82;;;;;;;;;;10271069;28;20041;-60
2023/12/20 20:26:55;;;;;;;13.48;9.23;;;;;;;;;;10270809;28;20467;-61
2023/12/20 20:31:56;;;;;;;13.95;8.93;;;;;;;;;;10269399;28;20070;-60
2023/12/20 20:36:57;;;;;;;16.20;9.85;;;;;;;;;;10269207;28;20058;-60
2023/12/20 20:41:57;;;;;;;19.40;9.13;;;;;;;;;;10280798;28;20031;-60
2023/12/20 20:46:58;;;;;;;12.68;8.07;;;;;;;;;;10287826;28;20023;-60
2023/12/20 20:51:58;;;;;;;14.70;8.90;;;;;;;;;;10285453;28;20467;-60
2023/12/20 20:56:59;;;;;;;11.98;8.43;;;;;;;;;;10288545;28;20026;-59
2023/12/20 21:02:02;;;;;;;13.55;8.75;;;;;;;;;;10287898;28;20070;-67
2023/12/20 21:07:03;;;;;;;14.57;8.18;;;;;;;;;;10288249;28;20475;-63
2023/12/20 21:12:04;;;;;;;14.55;8.60;;;;;;;;;;10288706;28;20034;-66
2023/12/20 21:17:05;;;;;;;15.13;8.20;;;;;;;;;;10287842;28;20045;-63
2023/12/20 21:22:05;;;;;;;11.32;7.90;;;;;;;;;;10280921;28;20034;-61
2023/12/20 21:27:07;;;;;;;15.93;8.75;;;;;;;;;;10287465;28;20023;-60
2023/12/20 21:32:08;;;;;;;16.75;8.70;;;;;;;;;;10261867;28;20050;-61
2023/12/20 21:37:08;;;;;;;13.90;7.68;;;;;;;;;;10287258;28;20035;-60
2023/12/20 21:42:09;;;;;;;11.68;7.38;;;;;;;;;;10286926;28;20139;-61
2023/12/20 21:47:10;;;;;;;11.60;7.05;;;;;;;;;;10270003;28;20498;-60
2023/12/20 21:52:11;;;;;;;13.55;7.18;;;;;;;;;;10286952;28;20026;-60
2023/12/20 21:57:15;;;;;;;11.77;7.25;;;;;;;;;;10285580;28;20154;-60
2023/12/20 22:02:22;;;;;;;10.43;7.35;;;;;;;;;;10285550;28;20101;-60
2023/12/20 22:07:23;;;;;;;9.60;6.82;;;;;;;;;;10285411;28;20027;-60
2023/12/20 22:12:24;;;;;;;12.13;7.10;;;;;;;;;;10285524;28;20031;-60
2023/12/20 22:17:25;;;;;;;10.35;7.13;;;;;;;;;;10285623;28;20035;-60
2023/12/20 22:22:26;;;;;;;11.93;7.68;;;;;;;;;;10281771;28;20466;-60
2023/12/20 22:27:26;;;;;;;9.65;7.32;;;;;;;;;;10286149;28;20391;-60
2023/12/20 22:32:28;;;;;;;13.40;7.53;;;;;;;;;;10282672;28;20026;-60
2023/12/20 22:37:28;;;;;;;8.98;6.40;;;;;;;;;;10285980;28;20374;-59
2023/12/20 22:42:29;;;;;;;14.32;7.15;;;;;;;;;;10285240;28;20027;-60
2023/12/20 22:47:29;;;;;;;12.88;7.18;;;;;;;;;;10285923;28;20030;-60
2023/12/20 22:52:30;;;;;;;12.75;6.55;;;;;;;;;;10289095;28;20090;-60
2023/12/20 22:57:31;;;;;;;9.38;6.13;;;;;;;;;;10293521;28;20054;-60
2023/12/20 23:02:31;;;;;;;10.25;6.72;;;;;;;;;;10292346;28;20398;-59
2023/12/20 23:07:32;;;;;;;9.80;6.18;;;;;;;;;;10283628;28;20480;-60
2023/12/20 23:12:33;;;;;;;11.35;6.57;;;;;;;;;;10272701;28;20439;-60
2023/12/20 23:17:33;;;;;;;12.18;6.05;;;;;;;;;;10273133;28;20038;-59
2023/12/20 23:22:34;;;;;;;9.93;5.93;;;;;;;;;;10272899;28;20034;-59
2023/12/20 23:27:34;;;;;;;11.57;6.55;;;;;;;;;;10272762;28;20027;-59
2023/12/20 23:32:35;;;;;;;10.10;5.57;;;;;;;;;;10271960;28;20031;-59
2023/12/20 23:37:36;;;;;;;10.15;6.40;;;;;;;;;;10269384;28;20035;-59
2023/12/20 23:42:36;;;;;;;8.82;6.10;;;;;;;;;;10270165;28;20034;-59
2023/12/20 23:47:37;;;;;;;8.30;6.05;;;;;;;;;;10270602;28;20035;-60
2023/12/20 23:52:37;;;;;;;11.30;6.47;;;;;;;;;;10271194;28;20450;-60
2023/12/20 23:57:39;;;;;;;10.93;6.13;;;;;;;;;;10270458;28;20049;-60
